EGLF

Farnborough Airport

Farnborough, United Kingdom
TAF EGLF 191100Z 1912/1921 20008KT 9999 SCT030 PROB30 TEMPO 1912/1914 7000 SHRA TEMPO 1918/1921 7000 SHRA PROB40 TEMPO 1918/1921 22015G25KT 3000 +SHRA BKN012CB
Issued Valid From Valid To
Dec-19 @ 11:00 UTC
(3 hours ago)
Dec-19 @ 12:00 UTC
(2 hours ago)
Dec-19 @ 21:00 UTC
(in 7 hours)
Dec-19 @ 12:00 to Dec-19 @ 21:00
TAF EGLF 191100Z 1912/1921 20008KT 9999 SCT030
Wind Visibility Clouds
200° at 8 knots 10,000+ meters
  • Scattered at 3,000' AGL
Temporary  (Probability 30%) Dec-19 @ 12:00 to Dec-19 @ 14:00
PROB30 TEMPO 1912/1914 7000 SHRA
Visibility Conditions
7,001 meters
  • Rain
Temporary  (Probability 40%) Dec-19 @ 18:00 to Dec-19 @ 21:00
PROB40 TEMPO 1918/1921 22015G25KT 3000 +SHRA BKN012CB
Wind Visibility Clouds Conditions
220° at 15 knots
 Gusting to 25 knots
2,993 meters
  • Broken at 1,200' AGL
  • Heavy Rain
Temporary Dec-19 @ 18:00 to Dec-19 @ 21:00
TEMPO 1918/1921 7000 SHRA
Visibility Conditions
7,001 meters
  • Rain
TAF EGLF 191100Z 1912/1921 20008KT 9999 SCT030 PROB30 TEMPO 1912/1914 7000 SHRA TEMPO 1918/1921 7000 SHRA PROB40 TEMPO 1918/1921 22015G25KT 3000 +SHRA BKN012CB
Issued Dec-19 @ 11:00 UTC
(3 hours ago)
Valid From Dec-19 @ 12:00 UTC
(2 hours ago)
Valid To Dec-19 @ 21:00 UTC
(in 7 hours)
Dec-19 @ 12:00 - Dec-19 @ 21:00
Wind Visibility
200° at 8 knots 10,000+ meters
Clouds
  • Scattered at 3,000' AGL
Probability 30% Temporary Dec-19 @ 12:00 - Dec-19 @ 14:00
Conditions
  • Rain
Probability 40% Temporary Dec-19 @ 18:00 - Dec-19 @ 21:00
Wind Visibility
220° at 15 knots
 Gusting to 25 knots
2,993 meters
Clouds
  • Broken at 1,200' AGL
Conditions
  • Heavy Rain
Temporary Dec-19 @ 18:00 - Dec-19 @ 21:00
Conditions
  • Rain